Time;durP1;ratioP1;P1;durP2;ratioP2;P2;SDS_P1;SDS_P2;PMS_P1;PMS_P2;Temp;Humidity;BMP_temperature;BMP_pressure;BME280_temperature;BME280_humidity;BME280_pressure;Samples;Min_cycle;Max_cycle;Signal;HPM_P1;HPM_P2
2022/01/22 00:02:14;;;;;;;46.90;43.83;;;;;;;-3.33;100.00;101434.81;5021196;28;20056;-81
2022/01/22 00:04:41;;;;;;;46.60;44.05;;;;;;;-3.96;100.00;101440.53;5022894;28;20053;-81
2022/01/22 00:07:09;;;;;;;49.53;46.92;;;;;;;-3.76;100.00;101432.31;5023779;28;20054;-83
2022/01/22 00:09:39;;;;;;;51.22;48.28;;;;;;;-4.00;100.00;101433.84;5034016;28;20045;-80
2022/01/22 00:12:11;;;;;;;46.25;43.55;;;;;;;-3.19;100.00;101443.47;5024048;28;20133;-79
2022/01/22 00:14:37;;;;;;;46.37;43.20;;;;;;;-3.64;100.00;101441.09;5023452;28;20554;-82
2022/01/22 00:17:04;;;;;;;48.15;45.55;;;;;;;-3.37;100.00;101442.88;5034217;28;20331;-78
2022/01/22 00:19:31;;;;;;;47.00;43.92;;;;;;;-4.06;100.00;101429.84;5025736;28;20042;-82
2022/01/22 00:21:58;;;;;;;45.90;42.92;;;;;;;-3.96;100.00;101438.75;5024013;28;20045;-81
2022/01/22 00:24:25;;;;;;;44.83;42.28;;;;;;;-3.75;100.00;101428.81;5028551;28;20041;-81
2022/01/22 00:26:53;;;;;;;43.10;40.50;;;;;;;-4.15;100.00;101436.44;5022736;28;20131;-82
2022/01/22 00:29:20;;;;;;;45.60;42.80;;;;;;;-4.12;100.00;101432.00;5025960;28;20045;-83
2022/01/22 00:31:47;;;;;;;47.45;44.75;;;;;;;-4.27;100.00;101433.75;5026170;28;20413;-81
2022/01/22 00:34:13;;;;;;;45.33;42.92;;;;;;;-3.38;100.00;101431.66;5022683;28;20053;-82
2022/01/22 00:36:40;;;;;;;48.33;45.47;;;;;;;-4.19;100.00;101431.53;5024875;28;20119;-81
2022/01/22 00:39:07;;;;;;;51.35;48.40;;;;;;;-4.28;100.00;101429.50;5023358;28;20058;-82
2022/01/22 00:41:34;;;;;;;44.20;41.38;;;;;;;-4.12;100.00;101429.41;5027496;28;20124;-82
2022/01/22 00:44:02;;;;;;;46.08;43.10;;;;;;;-4.23;100.00;101415.34;5023074;28;20103;-81
2022/01/22 00:46:29;;;;;;;51.50;48.58;;;;;;;-4.15;100.00;101420.88;5016384;28;20058;-81
2022/01/22 00:48:56;;;;;;;51.42;48.40;;;;;;;-3.64;100.00;101415.13;5025012;28;20053;-81
2022/01/22 00:51:23;;;;;;;45.22;42.72;;;;;;;-3.78;100.00;101410.81;5024620;28;20046;-81
2022/01/22 00:53:50;;;;;;;45.53;42.90;;;;;;;-3.80;100.00;101411.84;5022943;28;20119;-81
2022/01/22 00:56:17;;;;;;;49.25;46.63;;;;;;;-2.03;100.00;101401.81;5021297;28;20057;-80
2022/01/22 00:58:44;;;;;;;47.33;44.47;;;;;;;-2.34;100.00;101410.91;5023452;28;20053;-80
2022/01/22 01:01:12;;;;;;;43.03;40.42;;;;;;;-3.85;100.00;101391.34;5033531;28;20375;-81
2022/01/22 01:03:39;;;;;;;42.70;40.17;;;;;;;-4.01;100.00;101393.25;5027005;28;20049;-79
2022/01/22 01:06:06;;;;;;;42.20;39.92;;;;;;;-4.02;100.00;101389.81;5028041;28;20053;-80
2022/01/22 01:08:35;;;;;;;44.10;41.67;;;;;;;-2.30;100.00;101375.94;5029273;28;20042;-82
2022/01/22 01:11:03;;;;;;;46.10;43.63;;;;;;;-2.65;100.00;101375.75;5027127;28;20057;-80
2022/01/22 01:13:33;;;;;;;49.97;47.28;;;;;;;-2.76;100.00;101387.72;5022610;28;20045;-79
2022/01/22 01:16:04;;;;;;;40.38;38.05;;;;;;;-3.75;100.00;101383.81;5020358;28;20081;-82
2022/01/22 01:32:24;;;;;;;47.90;45.28;;;;;;;-4.26;100.00;101355.84;5029888;28;20099;-82
2022/01/22 01:34:52;;;;;;;44.22;41.28;;;;;;;-4.09;100.00;101359.16;5023298;28;20073;-80
2022/01/22 01:37:21;;;;;;;46.88;43.88;;;;;;;-4.49;100.00;101349.47;5022854;28;20061;-79
2022/01/22 01:39:51;;;;;;;46.92;44.05;;;;;;;-4.61;100.00;101353.63;5029429;28;20046;-79
2022/01/22 01:42:24;;;;;;;44.17;41.88;;;;;;;-3.55;100.00;101352.22;5025774;28;20045;-80
2022/01/22 01:44:51;;;;;;;45.53;42.92;;;;;;;-4.41;100.00;101352.44;5024861;28;20063;-80
2022/01/22 01:47:19;;;;;;;49.38;46.25;;;;;;;-4.35;100.00;101340.03;5035226;28;20049;-80
2022/01/22 01:49:46;;;;;;;48.08;45.38;;;;;;;-4.63;100.00;101350.31;5030461;28;20106;-80
2022/01/22 01:52:20;;;;;;;45.20;42.70;;;;;;;-4.54;100.00;101348.91;5026655;28;20053;-81
2022/01/22 01:55:01;;;;;;;49.10;46.38;;;;;;;-4.61;100.00;101361.41;5033974;28;20045;-82
2022/01/22 01:57:38;;;;;;;48.65;45.83;;;;;;;-4.79;100.00;101353.91;5021026;28;20478;-80
2022/01/22 02:00:07;;;;;;;45.78;43.08;;;;;;;-4.62;100.00;101364.13;5026293;28;20046;-83
2022/01/22 02:02:35;;;;;;;50.20;47.03;;;;;;;-4.94;100.00;101366.84;5031188;28;20558;-81
2022/01/22 02:05:02;;;;;;;48.40;45.65;;;;;;;-3.91;100.00;101358.81;5031022;28;20046;-79
2022/01/22 02:07:30;;;;;;;48.10;45.17;;;;;;;-4.88;100.00;101352.69;5026028;28;20543;-81
2022/01/22 02:09:59;;;;;;;45.28;42.75;;;;;;;-5.01;100.00;101360.34;5017060;28;20054;-79
2022/01/22 02:12:46;;;;;;;54.03;50.75;;;;;;;-5.07;100.00;101358.13;5029047;28;20065;-81
2022/01/22 02:23:42;;;;;;;53.22;50.35;;;;;;;-3.22;100.00;101344.00;4970344;28;20097;-83
2022/01/22 02:26:10;;;;;;;49.50;46.63;;;;;;;-4.71;100.00;101346.50;5020096;28;20042;-81
2022/01/22 02:28:38;;;;;;;46.30;43.50;;;;;;;-4.99;100.00;101340.38;5027833;28;20472;-81
2022/01/22 02:31:11;;;;;;;52.55;49.47;;;;;;;-5.03;100.00;101345.81;5027113;28;20571;-83
2022/01/22 02:33:48;;;;;;;51.00;48.08;;;;;;;-4.70;100.00;101341.22;5034410;28;20084;-80
2022/01/22 02:36:20;;;;;;;50.28;47.35;;;;;;;-5.03;100.00;101346.66;5025707;28;20064;-81
2022/01/22 02:38:58;;;;;;;52.60;49.65;;;;;;;-4.43;100.00;101337.88;5021819;28;20509;-78
2022/01/22 02:41:26;;;;;;;50.40;47.33;;;;;;;-5.00;100.00;101348.22;5028304;28;20049;-80
2022/01/22 02:43:54;;;;;;;52.55;49.28;;;;;;;-5.02;100.00;101345.75;5024912;28;20463;-81
2022/01/22 02:46:23;;;;;;;53.13;50.10;;;;;;;-4.75;100.00;101348.47;5035321;28;20084;-81
2022/01/22 02:48:50;;;;;;;52.20;49.10;;;;;;;-4.73;100.00;101345.75;5035764;28;20056;-82
2022/01/22 02:51:17;;;;;;;52.75;49.33;;;;;;;-5.24;100.00;101351.31;5025214;28;20057;-79
2022/01/22 02:53:44;;;;;;;48.78;45.40;;;;;;;-5.15;100.00;101350.78;5021838;28;20463;-79
2022/01/22 02:56:12;;;;;;;48.45;44.85;;;;;;;-5.20;100.00;101355.41;5029658;28;20123;-83
2022/01/22 02:58:39;;;;;;;52.60;49.55;;;;;;;-5.00;100.00;101349.06;5024873;28;20115;-80
2022/01/22 03:03:38;;;;;;;46.38;43.88;;;;;;;-5.15;100.00;101348.19;4981742;28;20479;-83
2022/01/22 03:06:06;;;;;;;47.95;44.90;;;;;;;-5.05;100.00;101353.69;4983924;28;20046;-79
2022/01/22 03:08:33;;;;;;;50.20;46.47;;;;;;;-5.11;100.00;101347.13;4988708;28;20061;-82
2022/01/22 03:11:04;;;;;;;52.13;48.95;;;;;;;-5.10;100.00;101360.91;4987196;28;20442;-80
2022/01/22 03:16:32;;;;;;;50.78;47.20;;;;;;;-5.00;100.00;101353.41;4994371;28;20057;-80
2022/01/22 03:19:04;;;;;;;46.10;43.30;;;;;;;-5.04;100.00;101345.00;4988002;28;20050;-81
2022/01/22 03:21:38;;;;;;;;;;;;;;;-4.94;100.00;101353.88;4977320;28;20082;-79
2022/01/22 03:29:39;;;;;;;52.30;49.13;;;;;;;-5.15;100.00;101340.41;4985452;28;20096;-82
2022/01/22 03:32:08;;;;;;;50.63;47.50;;;;;;;-4.99;100.00;101332.59;4984679;28;20046;-79
2022/01/22 03:34:41;;;;;;;51.10;48.05;;;;;;;-5.14;100.00;101336.09;4988303;28;20058;-82
2022/01/22 03:37:08;;;;;;;57.13;53.63;;;;;;;-4.36;100.00;101328.78;4989327;28;20050;-82
2022/01/22 03:39:35;;;;;;;49.92;47.08;;;;;;;-5.08;100.00;101330.56;4982860;28;20051;-83
2022/01/22 03:42:02;;;;;;;52.35;48.75;;;;;;;-5.13;100.00;101341.19;4989134;28;20050;-81
2022/01/22 03:44:30;;;;;;;49.10;45.83;;;;;;;-5.18;100.00;101340.59;4980495;28;20084;-78
2022/01/22 03:46:58;;;;;;;50.70;47.70;;;;;;;-5.27;100.00;101338.53;4992228;28;20062;-77
2022/01/22 03:49:25;;;;;;;54.40;51.10;;;;;;;-5.30;100.00;101342.13;4989778;28;20487;-83
2022/01/22 03:51:51;;;;;;;54.35;50.65;;;;;;;-5.34;100.00;101340.66;4985575;28;20084;-80
2022/01/22 03:54:18;;;;;;;54.03;50.58;;;;;;;-5.49;100.00;101343.28;4986122;28;20553;-79
2022/01/22 03:56:47;;;;;;;59.33;55.50;;;;;;;-5.35;100.00;101349.34;4981206;28;20472;-79
2022/01/22 03:59:14;;;;;;;54.40;50.97;;;;;;;-5.29;100.00;101348.19;4980380;28;20047;-83
2022/01/22 04:02:11;;;;;;;48.83;46.08;;;;;;;-5.24;100.00;101350.50;4992274;28;20137;-82
2022/01/22 04:04:41;;;;;;;52.05;48.33;;;;;;;-5.30;100.00;101336.97;4984748;28;20046;-80
2022/01/22 04:07:44;;;;;;;52.78;48.88;;;;;;;-5.27;100.00;101343.72;4984702;28;20047;-81
2022/01/22 04:10:13;;;;;;;50.85;47.65;;;;;;;-5.12;100.00;101347.19;4987079;28;20042;-80
2022/01/22 04:12:47;;;;;;;49.30;46.13;;;;;;;-5.20;100.00;101339.88;4984052;28;20050;-81
2022/01/22 04:15:17;;;;;;;49.85;46.55;;;;;;;-5.17;100.00;101334.53;4990468;28;20050;-78
2022/01/22 04:26:09;;;;;;;47.75;44.83;;;;;;;-4.97;100.00;101333.34;4983965;28;20554;-82
2022/01/22 04:28:36;;;;;;;47.28;44.25;;;;;;;-5.03;100.00;101341.47;4984112;28;20137;-80
2022/01/22 04:31:03;;;;;;;51.42;48.15;;;;;;;-5.08;100.00;101336.56;4981728;28;20050;-77
2022/01/22 04:33:30;;;;;;;54.70;51.03;;;;;;;-5.15;100.00;101326.66;4981925;28;20113;-82
2022/01/22 04:35:58;;;;;;;53.70;50.22;;;;;;;-5.12;100.00;101323.88;4987211;28;20089;-82
2022/01/22 04:38:25;;;;;;;51.30;47.95;;;;;;;-5.12;100.00;101326.47;4983836;28;20479;-78
2022/01/22 04:40:52;;;;;;;53.20;50.03;;;;;;;-5.09;100.00;101321.09;4983693;28;20372;-80
2022/01/22 04:43:19;;;;;;;53.35;49.65;;;;;;;-5.14;100.00;101326.56;4984281;28;20046;-80
2022/01/22 04:45:54;;;;;;;56.72;52.78;;;;;;;-5.67;100.00;101330.47;4983261;28;20129;-79
2022/01/22 04:48:40;;;;;;;54.08;50.58;;;;;;;-5.26;100.00;101331.59;4986473;28;20545;-78
2022/01/22 04:56:38;;;;;;;57.72;53.08;;;;;;;-5.73;100.00;101317.03;4984637;28;20065;-83
2022/01/22 04:59:05;;;;;;;50.65;47.38;;;;;;;-5.33;100.00;101326.78;4983913;28;20463;-80
2022/01/22 05:01:32;;;;;;;60.33;55.15;;;;;;;-5.85;100.00;101319.38;4982624;28;20050;-81
2022/01/22 05:03:58;;;;;;;60.28;54.97;;;;;;;-5.97;100.00;101325.28;4986541;28;20054;-78
2022/01/22 05:06:29;;;;;;;62.88;58.58;;;;;;;-5.58;100.00;101326.53;4985377;28;20051;-79
2022/01/22 05:08:56;;;;;;;49.85;46.55;;;;;;;-5.58;100.00;101317.00;4984316;28;20050;-77
2022/01/22 05:11:24;;;;;;;58.53;54.13;;;;;;;-5.61;100.00;101322.34;4984407;28;20046;-82
2022/01/22 05:13:51;;;;;;;54.42;50.53;;;;;;;-5.47;100.00;101331.09;4988347;28;20054;-79
2022/01/22 05:16:18;;;;;;;54.30;50.67;;;;;;;-5.42;100.00;101323.91;4988448;28;20050;-77
2022/01/22 05:18:51;;;;;;;54.20;50.75;;;;;;;-5.17;100.00;101325.91;4986247;28;20054;-79
2022/01/22 05:21:19;;;;;;;51.03;47.45;;;;;;;-5.14;100.00;101311.03;4983678;28;20078;-80
2022/01/22 05:23:48;;;;;;;49.00;45.85;;;;;;;-4.47;100.00;101313.09;4987855;28;20050;-82
2022/01/22 05:26:41;;;;;;;53.38;49.58;;;;;;;-5.09;100.00;101308.97;4989118;28;20422;-82
2022/01/22 05:29:32;;;;;;;;;;;;;;;-4.78;100.00;101312.34;4984519;28;20058;-82
2022/01/22 05:32:28;;;;;;;51.30;47.55;;;;;;;-4.85;100.00;101308.44;4979585;28;19992;-82
2022/01/22 05:37:39;;;;;;;52.67;48.65;;;;;;;-4.83;100.00;101301.44;4989029;28;20505;-80
2022/01/22 05:40:09;;;;;;;53.05;49.40;;;;;;;-4.82;100.00;101297.91;4988576;28;20124;-82
2022/01/22 05:42:37;;;;;;;54.17;50.78;;;;;;;-3.79;100.00;101301.88;4987252;28;20124;-78
2022/01/22 05:45:04;;;;;;;49.88;46.60;;;;;;;-4.77;100.00;101306.25;4989948;28;20043;-78
2022/01/22 05:47:30;;;;;;;50.13;46.70;;;;;;;-4.82;100.00;101305.69;4984101;28;20050;-81
2022/01/22 05:49:58;;;;;;;53.88;50.35;;;;;;;-4.58;100.00;101318.09;4987502;28;20062;-77
2022/01/22 05:52:31;;;;;;;48.67;45.22;;;;;;;-4.56;100.00;101309.28;4992142;28;20109;-80
2022/01/22 06:00:36;;;;;;;52.40;48.60;;;;;;;-4.57;100.00;101304.19;4985326;28;20045;-81
2022/01/22 06:03:03;;;;;;;52.60;49.05;;;;;;;-4.57;100.00;101306.78;4982871;28;20121;-77
2022/01/22 06:05:30;;;;;;;52.45;49.08;;;;;;;-4.21;100.00;101314.88;4989204;28;20101;-82
2022/01/22 06:07:57;;;;;;;53.17;49.47;;;;;;;-4.34;100.00;101305.38;4985408;28;20054;-80
2022/01/22 06:10:28;;;;;;;51.05;47.45;;;;;;;-4.35;100.00;101314.09;4989580;28;20050;-80
2022/01/22 06:13:11;;;;;;;50.55;47.15;;;;;;;-3.56;100.00;101313.38;4989268;28;20061;-78
2022/01/22 06:15:38;;;;;;;51.63;48.20;;;;;;;-4.23;100.00;101303.78;4987030;28;20399;-80
2022/01/22 06:18:05;;;;;;;49.03;45.63;;;;;;;-4.05;100.00;101316.53;4988982;28;20042;-79
2022/01/22 06:20:33;;;;;;;47.92;44.60;;;;;;;-3.78;100.00;101308.72;4990927;28;20050;-82
2022/01/22 06:22:59;;;;;;;50.42;46.90;;;;;;;-3.65;100.00;101308.78;4986502;28;20047;-78
2022/01/22 06:25:26;;;;;;;50.88;47.40;;;;;;;-3.48;100.00;101316.28;4986254;28;20086;-80
2022/01/22 06:27:53;;;;;;;48.22;44.63;;;;;;;-3.72;100.00;101305.75;4933024;28;20062;-78
2022/01/22 06:30:22;;;;;;;51.03;46.92;;;;;;;-3.15;100.00;101304.59;4987781;28;20047;-80
2022/01/22 06:32:49;;;;;;;50.28;46.78;;;;;;;-3.18;100.00;101313.44;4991833;28;20471;-81
2022/01/22 06:35:16;;;;;;;52.30;49.05;;;;;;;-2.09;100.00;101306.78;4988284;28;20101;-80
2022/01/22 06:37:42;;;;;;;52.45;48.95;;;;;;;-3.02;100.00;101310.66;4986957;28;20050;-80
2022/01/22 06:42:54;;;;;;;55.10;51.63;;;;;;;-2.81;100.00;101311.81;4989600;28;20050;-77
2022/01/22 06:45:22;;;;;;;50.42;47.22;;;;;;;-2.96;100.00;101312.84;4984515;28;20108;-78
2022/01/22 06:47:49;;;;;;;51.95;48.55;;;;;;;-2.42;100.00;101312.59;4993760;28;20536;-78
2022/01/22 06:50:18;;;;;;;51.88;48.17;;;;;;;-2.59;100.00;101297.31;4992403;28;20541;-80
2022/01/22 06:52:45;;;;;;;49.58;46.58;;;;;;;-2.47;100.00;101303.44;4993035;28;20050;-80
2022/01/22 06:55:15;;;;;;;48.10;45.38;;;;;;;-2.18;100.00;101302.22;4990634;28;20052;-79
2022/01/22 06:57:42;;;;;;;48.67;45.67;;;;;;;-2.63;100.00;101306.25;4990100;28;20050;-79
2022/01/22 07:00:09;;;;;;;47.80;44.80;;;;;;;-2.55;100.00;101296.97;4994154;28;20054;-78
2022/01/22 07:02:38;;;;;;;48.83;45.17;;;;;;;-2.23;100.00;101298.28;4991690;28;20190;-78
2022/01/22 07:05:05;;;;;;;47.95;44.83;;;;;;;-2.61;100.00;101286.19;4993190;28;20442;-82
2022/01/22 07:07:32;;;;;;;49.78;46.50;;;;;;;-1.97;100.00;101305.03;4993354;28;20054;-79
2022/01/22 07:09:58;;;;;;;50.60;46.88;;;;;;;-2.00;100.00;101307.03;4990062;28;20093;-77
2022/01/22 07:12:25;;;;;;;48.70;45.28;;;;;;;-2.09;100.00;101304.16;4985197;28;20443;-79
2022/01/22 07:14:52;;;;;;;51.92;48.33;;;;;;;-1.83;100.00;101305.84;4984310;28;20062;-80
2022/01/22 07:17:19;;;;;;;50.72;47.35;;;;;;;-2.17;100.00;101287.44;4984573;28;20051;-77
2022/01/22 07:19:47;;;;;;;50.13;46.58;;;;;;;-1.39;100.00;101289.56;4990463;28;20116;-78
2022/01/22 07:22:33;;;;;;;47.85;44.75;;;;;;;-2.28;100.00;101272.56;4988786;28;20054;-78
2022/01/22 07:24:59;;;;;;;48.20;44.90;;;;;;;-1.76;100.00;101278.38;4990939;28;20050;-79
2022/01/22 07:27:26;;;;;;;47.30;43.88;;;;;;;-2.16;100.00;101282.09;4991352;28;20459;-80
2022/01/22 07:29:53;;;;;;;47.67;44.67;;;;;;;-1.92;100.00;101279.50;4992588;28;20112;-80
2022/01/22 07:32:28;;;;;;;47.03;43.50;;;;;;;-2.26;100.00;101280.28;4992019;28;20051;-78
2022/01/22 07:34:57;;;;;;;46.90;43.47;;;;;;;-0.86;100.00;101274.22;4984638;28;20042;-78
2022/01/22 07:37:23;;;;;;;49.92;46.40;;;;;;;-2.13;100.00;101268.88;4988913;28;20046;-80
2022/01/22 07:39:50;;;;;;;49.97;46.83;;;;;;;-0.88;100.00;101267.44;4992375;28;20050;-81
2022/01/22 07:42:18;;;;;;;49.83;46.17;;;;;;;-0.32;100.00;101256.97;4993724;28;20050;-80
2022/01/22 07:44:45;;;;;;;50.47;47.47;;;;;;;-0.62;100.00;101250.63;4986115;28;20046;-81
2022/01/22 07:47:12;;;;;;;52.67;49.17;;;;;;;-1.84;100.00;101255.53;4992880;28;20050;-79
2022/01/22 07:49:39;;;;;;;53.35;49.55;;;;;;;-0.42;100.00;101251.66;4987139;28;20072;-80
2022/01/22 07:52:07;;;;;;;51.70;48.20;;;;;;;-1.79;100.00;101263.81;4988764;28;20449;-79
2022/01/22 07:54:34;;;;;;;48.53;45.03;;;;;;;-0.59;100.00;101275.63;4990355;28;20046;-81
2022/01/22 07:57:02;;;;;;;54.58;51.00;;;;;;;-0.86;100.00;101273.38;4990953;28;20121;-79
2022/01/22 07:59:29;;;;;;;53.88;50.38;;;;;;;-0.18;100.00;101274.13;4988569;28;20491;-79
2022/01/22 08:01:56;;;;;;;49.97;46.72;;;;;;;0.15;100.00;101271.44;4977150;28;20105;-82
2022/01/22 08:04:24;;;;;;;49.35;46.15;;;;;;;0.03;100.00;101268.97;4986409;28;20478;-79
2022/01/22 08:06:52;;;;;;;50.83;47.58;;;;;;;0.05;100.00;101265.28;4991540;28;20136;-79
2022/01/22 08:09:20;;;;;;;49.85;46.35;;;;;;;-0.87;100.00;101259.53;4990754;28;20129;-80
2022/01/22 08:11:47;;;;;;;48.95;45.72;;;;;;;-0.12;100.00;101253.63;4984637;28;20043;-77
2022/01/22 08:14:15;;;;;;;53.00;49.30;;;;;;;-0.75;100.00;101255.97;4989991;28;20057;-80
2022/01/22 08:16:41;;;;;;;52.05;48.70;;;;;;;-0.70;100.00;101253.84;4994179;28;20399;-81
2022/01/22 08:19:08;;;;;;;47.58;44.83;;;;;;;0.03;100.00;101258.53;4993330;28;20049;-81
2022/01/22 08:21:35;;;;;;;51.00;46.72;;;;;;;-0.81;100.00;101251.22;4984482;28;20113;-81
2022/01/22 08:24:02;;;;;;;50.35;47.45;;;;;;;-0.17;100.00;101262.75;4987482;28;20065;-79
2022/01/22 08:26:34;;;;;;;46.83;44.42;;;;;;;1.49;100.00;101258.44;4985453;28;20070;-80
2022/01/22 08:29:03;;;;;;;50.17;47.13;;;;;;;-0.23;100.00;101253.63;4987480;28;20050;-80
2022/01/22 08:31:46;;;;;;;49.10;45.90;;;;;;;0.14;100.00;101253.28;4982877;28;20061;-81
2022/01/22 08:36:59;;;;;;;52.00;48.53;;;;;;;0.47;100.00;101249.69;4968136;28;20046;-81
2022/01/22 08:39:26;;;;;;;51.22;47.72;;;;;;;-0.69;100.00;101254.66;4975885;28;20046;-80
2022/01/22 08:41:55;;;;;;;52.15;47.72;;;;;;;0.73;100.00;101250.13;4979122;28;20187;-81
2022/01/22 08:44:22;;;;;;;51.50;48.03;;;;;;;-0.01;100.00;101256.16;4984105;28;20447;-81
2022/01/22 08:46:49;;;;;;;53.25;49.47;;;;;;;1.16;100.00;101249.09;4993322;28;20376;-82
2022/01/22 08:49:15;;;;;;;54.28;50.65;;;;;;;-0.30;100.00;101257.69;4985445;28;20042;-79
2022/01/22 08:51:42;;;;;;;52.80;49.47;;;;;;;0.95;100.00;101246.50;4993364;28;20054;-85
2022/01/22 08:54:10;;;;;;;55.03;51.17;;;;;;;0.08;100.00;101245.94;4993464;28;20564;-81
2022/01/22 08:56:39;;;;;;;52.03;48.78;;;;;;;2.11;100.00;101255.63;4991057;28;20150;-79
2022/01/22 08:59:08;;;;;;;51.83;48.35;;;;;;;1.14;100.00;101232.69;4992034;28;20394;-78
2022/01/22 09:01:35;;;;;;;51.60;48.17;;;;;;;2.09;100.00;101232.19;4997734;28;20109;-83
2022/01/22 09:04:02;;;;;;;52.22;48.67;;;;;;;0.91;100.00;101232.88;4997331;28;20391;-82
2022/01/22 09:06:29;;;;;;;52.65;49.35;;;;;;;1.01;100.00;101234.72;4993779;28;20462;-83
2022/01/22 09:09:05;;;;;;;53.15;49.30;;;;;;;0.25;100.00;101223.66;4989408;28;20117;-78
2022/01/22 09:11:32;;;;;;;53.90;50.20;;;;;;;1.38;100.00;101221.88;4990405;28;20133;-81
2022/01/22 09:14:00;;;;;;;55.28;51.65;;;;;;;1.81;100.00;101221.53;4990836;28;20059;-79
2022/01/22 09:16:28;;;;;;;53.63;50.10;;;;;;;2.44;100.00;101226.38;4980286;28;20063;-79
2022/01/22 09:18:58;;;;;;;57.95;53.88;;;;;;;3.05;100.00;101208.53;4985689;28;20058;-81
2022/01/22 09:21:25;;;;;;;58.38;54.65;;;;;;;1.75;100.00;101209.00;4991505;28;20054;-79
2022/01/22 09:23:51;;;;;;;56.88;53.35;;;;;;;0.17;100.00;101200.78;4993911;28;20523;-79
2022/01/22 09:26:19;;;;;;;54.75;51.50;;;;;;;1.29;100.00;101197.34;4985166;28;20047;-81
2022/01/22 09:28:47;;;;;;;54.90;50.95;;;;;;;3.12;100.00;101199.13;4988081;28;20063;-77
2022/01/22 09:31:14;;;;;;;51.08;47.72;;;;;;;1.82;100.00;101202.25;4988041;28;20039;-81
2022/01/22 09:33:43;;;;;;;52.60;49.28;;;;;;;2.33;100.00;101186.34;4991481;28;20077;-79
2022/01/22 09:36:10;;;;;;;54.75;51.38;;;;;;;3.10;100.00;101177.44;4984445;28;20051;-79
2022/01/22 09:38:37;;;;;;;55.20;51.67;;;;;;;2.40;100.00;101183.06;4995531;28;20117;-80
2022/01/22 09:41:06;;;;;;;55.63;52.08;;;;;;;1.97;100.00;101176.47;4993411;28;20116;-80
2022/01/22 09:43:32;;;;;;;55.35;52.03;;;;;;;2.24;100.00;101172.28;4992176;28;20177;-81
2022/01/22 09:45:59;;;;;;;53.80;50.35;;;;;;;2.63;100.00;101161.72;4996475;28;20050;-79
2022/01/22 09:48:26;;;;;;;51.97;49.00;;;;;;;3.42;100.00;101163.84;4989786;28;20047;-81
2022/01/22 09:50:54;;;;;;;55.05;51.65;;;;;;;3.76;100.00;101152.69;4987863;28;20144;-79
2022/01/22 09:53:21;;;;;;;56.35;53.08;;;;;;;2.80;100.00;101142.63;4989934;28;20132;-81
2022/01/22 09:55:48;;;;;;;53.60;50.47;;;;;;;2.68;100.00;101139.34;4991960;28;20120;-82
2022/01/22 09:58:15;;;;;;;56.53;52.80;;;;;;;2.52;100.00;101147.00;4993971;28;20042;-79
2022/01/22 10:00:41;;;;;;;55.90;52.25;;;;;;;3.16;100.00;101147.97;4995043;28;20058;-78
2022/01/22 10:03:16;;;;;;;56.17;52.38;;;;;;;3.28;100.00;101135.47;4994630;28;20073;-82
2022/01/22 10:05:43;;;;;;;56.35;53.15;;;;;;;2.77;100.00;101132.41;4987357;28;20068;-79
2022/01/22 10:08:28;;;;;;;55.83;52.45;;;;;;;1.64;100.00;101133.19;4986790;28;20122;-77
2022/01/22 10:10:57;;;;;;;53.53;50.47;;;;;;;4.07;100.00;101125.00;4986757;28;20050;-81
2022/01/22 10:13:39;;;;;;;53.53;49.78;;;;;;;2.45;100.00;101133.66;4986633;28;20467;-82
2022/01/22 10:16:18;;;;;;;51.28;48.60;;;;;;;2.13;100.00;101131.38;4983520;28;20133;-80
2022/01/22 10:18:46;;;;;;;54.88;51.58;;;;;;;2.27;100.00;101132.72;4963667;28;20057;-80
2022/01/22 10:21:15;;;;;;;56.47;53.10;;;;;;;6.98;87.57;101124.09;4983865;28;20129;-79
2022/01/22 10:23:43;;;;;;;60.47;56.17;;;;;;;2.47;95.66;101126.44;4990702;28;20046;-81
2022/01/22 10:26:13;;;;;;;56.15;52.65;;;;;;;2.77;100.00;101111.41;4988485;28;20046;-79
2022/01/22 10:28:43;;;;;;;56.47;53.17;;;;;;;3.42;100.00;101125.28;4990852;28;20052;-81
2022/01/22 10:31:19;;;;;;;57.38;54.08;;;;;;;1.23;100.00;101119.38;4991072;28;20410;-79
2022/01/22 10:34:04;;;;;;;56.85;53.55;;;;;;;4.11;99.36;101110.59;4986857;28;20051;-78
2022/01/22 10:36:31;;;;;;;56.63;53.13;;;;;;;1.69;97.58;101103.97;4984348;28;20058;-79
2022/01/22 10:39:00;;;;;;;54.40;51.17;;;;;;;2.89;100.00;101107.63;4984628;28;20054;-78
2022/01/22 10:41:34;;;;;;;55.47;51.80;;;;;;;2.81;99.76;101097.03;4988597;28;20414;-77
2022/01/22 10:44:02;;;;;;;57.03;53.75;;;;;;;3.21;100.00;101106.34;4986526;28;20109;-82
2022/01/22 10:46:41;;;;;;;55.80;52.70;;;;;;;3.87;97.80;101097.25;4989409;28;20109;-81
2022/01/22 10:49:11;;;;;;;56.17;52.72;;;;;;;2.08;92.43;101096.88;4995880;28;20053;-81
2022/01/22 10:51:47;;;;;;;55.13;51.80;;;;;;;4.29;88.35;101100.00;4994454;28;20388;-79
2022/01/22 10:54:16;;;;;;;54.58;51.17;;;;;;;4.31;78.00;101099.84;4994201;28;20461;-81
2022/01/22 10:56:43;;;;;;;55.97;52.40;;;;;;;5.64;73.48;101099.13;4994109;28;20051;-78
2022/01/22 10:59:12;;;;;;;57.13;53.63;;;;;;;6.38;68.38;101086.72;4994167;28;20050;-79
2022/01/22 11:01:51;;;;;;;56.47;53.15;;;;;;;2.97;78.46;101091.16;4995027;28;20128;-81
2022/01/22 11:04:21;;;;;;;59.30;55.65;;;;;;;6.74;63.57;101086.22;4994013;28;20126;-81
2022/01/22 11:06:50;;;;;;;58.60;55.20;;;;;;;4.75;63.97;101082.16;4993897;28;20116;-81
2022/01/22 11:09:18;;;;;;;58.60;54.90;;;;;;;6.07;64.17;101077.88;4993726;28;20473;-81
2022/01/22 11:11:45;;;;;;;57.17;53.67;;;;;;;6.19;68.23;101071.25;4987223;28;20124;-78
2022/01/22 11:14:13;;;;;;;58.05;54.35;;;;;;;7.51;61.35;101069.63;4988183;28;20054;-78
2022/01/22 11:16:42;;;;;;;60.35;56.78;;;;;;;6.37;54.12;101068.41;4990014;28;20442;-81
2022/01/22 11:19:10;;;;;;;61.38;57.22;;;;;;;4.64;53.52;101063.19;4985439;28;20043;-81
2022/01/22 11:21:40;;;;;;;58.17;54.67;;;;;;;6.32;54.09;101053.06;4983128;28;20046;-78
2022/01/22 11:24:08;;;;;;;55.22;51.97;;;;;;;3.93;55.08;101059.00;4981366;28;20190;-78
2022/01/22 11:26:39;;;;;;;57.25;53.85;;;;;;;2.39;70.64;101055.56;4990222;28;20128;-79
2022/01/22 11:29:07;;;;;;;56.22;52.33;;;;;;;2.62;72.67;101052.56;4985071;28;20042;-78
2022/01/22 11:31:37;;;;;;;54.13;50.65;;;;;;;2.41;73.78;101043.13;4994040;28;20069;-78
2022/01/22 11:34:06;;;;;;;52.30;48.95;;;;;;;1.93;78.29;101038.03;4987516;28;20065;-79
2022/01/22 11:36:39;;;;;;;52.65;49.55;;;;;;;2.12;92.11;101045.84;4986914;28;20138;-79
2022/01/22 11:39:06;;;;;;;76.18;68.55;;;;;;;2.91;76.24;101047.97;4980872;28;20082;-80
2022/01/22 11:41:33;;;;;;;57.60;54.10;;;;;;;3.18;69.07;101054.16;4989483;28;20046;-83
2022/01/22 11:44:09;;;;;;;55.00;51.50;;;;;;;3.07;67.85;101051.75;4984636;28;20050;-79
2022/01/22 11:46:40;;;;;;;56.65;53.05;;;;;;;2.77;70.66;101047.63;4994413;28;20146;-80
2022/01/22 11:49:15;;;;;;;55.80;52.50;;;;;;;2.72;66.65;101040.19;4988903;28;20494;-79
2022/01/22 11:51:43;;;;;;;56.83;53.45;;;;;;;4.40;67.72;101043.69;4987931;28;20050;-80
2022/01/22 11:54:10;;;;;;;55.75;52.40;;;;;;;4.06;59.26;101033.16;4987082;28;20042;-81
2022/01/22 11:56:49;;;;;;;54.47;51.15;;;;;;;2.99;62.58;101020.97;4943316;28;20105;-79
2022/01/22 11:59:22;;;;;;;59.17;55.47;;;;;;;2.19;71.78;101025.16;4989812;28;20058;-81
2022/01/22 12:01:56;;;;;;;58.75;54.78;;;;;;;3.70;62.38;101021.91;4992262;28;20136;-80
2022/01/22 12:04:24;;;;;;;57.72;54.58;;;;;;;4.91;60.60;101023.47;4975167;28;20536;-79
2022/01/22 12:07:13;;;;;;;74.20;69.07;;;;;;;6.36;55.78;101020.09;4986048;28;20091;-81
2022/01/22 12:09:51;;;;;;;76.25;71.05;;;;;;;4.46;53.43;101024.63;4983851;28;20050;-81
2022/01/22 12:15:13;;;;;;;77.45;71.32;;;;;;;3.39;59.19;101019.72;4985525;28;20058;-79
2022/01/22 12:18:00;;;;;;;86.45;79.82;;;;;;;3.52;59.89;101017.53;4989246;28;20444;-80
2022/01/22 12:21:30;;;;;;;84.78;78.30;;;;;;;5.27;55.03;101026.66;4985969;28;20473;-80
2022/01/22 12:23:52;;;;;;;79.35;73.22;;;;;;;5.61;50.67;101019.56;4986068;28;20043;-79